createdAt,value
2018-02-22T00:01:15.139Z,50.50
2018-02-22T00:03:41.647Z,45.13
2018-02-22T00:06:09.262Z,50.50
2018-02-22T00:08:35.740Z,59.23
2018-02-22T00:11:02.259Z,49.00
2018-02-22T00:13:29.464Z,50.13
2018-02-22T00:15:55.889Z,48.63
2018-02-22T00:18:23.380Z,60.63
2018-02-22T00:20:50.212Z,57.70
2018-02-22T00:23:16.677Z,58.13
2018-02-22T00:25:44.683Z,52.23
2018-02-22T00:28:11.796Z,52.63
2018-02-22T00:30:38.234Z,46.00
2018-02-22T00:33:04.678Z,58.60
2018-02-22T00:35:31.856Z,51.17
2018-02-22T00:37:59.069Z,60.77
2018-02-22T00:40:25.490Z,48.40
2018-02-22T00:42:52.717Z,49.77
2018-02-22T00:45:19.159Z,53.00
2018-02-22T00:47:45.560Z,41.80
2018-02-22T00:50:12.015Z,49.30
2018-02-22T00:52:38.457Z,40.93
2018-02-22T00:55:05.025Z,42.47
2018-02-22T00:57:32.164Z,50.17
2018-02-22T01:01:20.111Z,48.07
2018-02-22T01:03:46.505Z,34.63
2018-02-22T01:06:14.439Z,49.30
2018-02-22T01:08:40.775Z,40.73
2018-02-22T01:11:07.353Z,44.53
2018-02-22T01:13:33.673Z,40.53
2018-02-22T01:16:01.132Z,38.20
2018-02-22T01:18:27.920Z,44.10
2018-02-22T01:20:54.363Z,44.07
2018-02-22T01:23:21.484Z,45.90
2018-02-22T01:25:48.702Z,40.07
2018-02-22T01:28:15.101Z,43.77
2018-02-22T01:30:41.807Z,39.37
2018-02-22T01:33:08.243Z,37.03
2018-02-22T01:35:34.802Z,40.77
2018-02-22T01:38:01.416Z,36.20
2018-02-22T01:40:28.004Z,34.77
2018-02-22T01:42:54.451Z,31.60
2018-02-22T01:45:21.176Z,33.00
2018-02-22T01:47:47.742Z,31.67
2018-02-22T01:50:15.111Z,29.60
2018-02-22T01:52:41.617Z,32.57
2018-02-22T01:55:07.978Z,42.97
2018-02-22T01:57:34.376Z,37.50
2018-02-22T02:00:00.719Z,31.93
2018-02-22T02:02:27.905Z,30.60
2018-02-22T02:04:55.175Z,39.90
2018-02-22T02:07:21.656Z,40.50
2018-02-22T02:09:48.095Z,36.97
2018-02-22T02:12:14.495Z,31.30
2018-02-22T02:14:40.995Z,33.03
2018-02-22T02:17:15.899Z,28.20
2018-02-22T02:19:43.084Z,30.60
2018-02-22T02:22:10.298Z,30.40
2018-02-22T02:24:36.820Z,31.10
2018-02-22T02:27:03.252Z,31.53
2018-02-22T02:29:29.731Z,30.87
2018-02-22T02:31:56.423Z,30.90
2018-02-22T02:34:23.164Z,31.87
2018-02-22T02:36:50.417Z,32.57
2018-02-22T02:39:17.022Z,32.90
2018-02-22T02:41:43.386Z,38.13
2018-02-22T02:44:10.141Z,36.53
2018-02-22T02:46:37.308Z,34.37
2018-02-22T02:49:03.784Z,40.27
2018-02-22T02:51:30.293Z,38.17
2018-02-22T02:53:56.757Z,45.37
2018-02-22T02:56:23.172Z,32.07
2018-02-22T02:58:51.257Z,52.93
2018-02-22T03:01:18.018Z,38.73
2018-02-22T03:03:44.426Z,33.23
2018-02-22T03:06:10.832Z,35.17
2018-02-22T03:08:38.191Z,43.47
2018-02-22T03:11:04.554Z,39.83
2018-02-22T03:13:31.705Z,34.73
2018-02-22T03:15:58.049Z,39.83
2018-02-22T03:18:24.427Z,39.30
2018-02-22T03:20:51.102Z,38.67
2018-02-22T03:23:18.339Z,45.60
2018-02-22T03:25:45.523Z,40.00
2018-02-22T03:28:12.276Z,38.10
2018-02-22T03:30:38.788Z,40.77
2018-02-22T03:33:05.285Z,42.30
2018-02-22T03:35:31.714Z,42.43
2018-02-22T03:37:58.121Z,47.87
2018-02-22T03:40:24.680Z,47.27
2018-02-22T03:42:51.061Z,35.37
2018-02-22T03:45:17.847Z,39.53
2018-02-22T03:47:44.264Z,40.00
2018-02-22T03:50:10.672Z,40.57
2018-02-22T03:52:37.188Z,43.40
2018-02-22T03:55:03.731Z,51.03
2018-02-22T03:57:30.221Z,52.30
2018-02-22T03:59:57.449Z,50.37
2018-02-22T04:02:24.335Z,48.73
2018-02-22T04:04:51.171Z,50.13
2018-02-22T04:07:18.281Z,46.90
2018-02-22T04:09:45.313Z,40.73
2018-02-22T04:12:11.629Z,42.10
2018-02-22T04:14:37.997Z,41.53
2018-02-22T04:17:05.113Z,47.93
2018-02-22T04:19:31.490Z,47.63
2018-02-22T04:21:58.689Z,51.23
2018-02-22T04:24:25.480Z,49.00
2018-02-22T04:26:51.908Z,51.63
2018-02-22T04:29:18.760Z,50.17
2018-02-22T04:31:45.162Z,51.53
2018-02-22T04:34:12.325Z,48.73
2018-02-22T04:36:38.695Z,49.30
2018-02-22T04:39:05.160Z,60.50
2018-02-22T04:41:31.549Z,46.83
2018-02-22T04:43:58.708Z,49.60
2018-02-22T04:46:26.605Z,53.87
2018-02-22T04:48:59.578Z,46.10
2018-02-22T04:51:27.184Z,55.47
2018-02-22T04:53:53.702Z,56.43
2018-02-22T04:56:21.325Z,46.23
2018-02-22T04:58:49.468Z,50.80
2018-02-22T05:01:16.652Z,59.10
2018-02-22T05:03:43.034Z,55.87
2018-02-22T05:06:10.313Z,59.87
2018-02-22T05:08:36.673Z,61.17
2018-02-22T05:11:03.212Z,52.20
2018-02-22T05:13:29.615Z,59.27
2018-02-22T05:15:55.995Z,67.20
2018-02-22T05:18:22.805Z,71.27
2018-02-22T05:20:50.288Z,59.37
2018-02-22T05:23:17.869Z,62.70
2018-02-22T05:25:44.311Z,66.53
2018-02-22T05:28:11.526Z,73.00
2018-02-22T05:30:37.943Z,61.00
2018-02-22T05:33:04.787Z,60.67
2018-02-22T05:35:31.168Z,76.67
2018-02-22T05:37:57.669Z,64.03
2018-02-22T05:40:24.194Z,63.90
2018-02-22T05:42:50.632Z,70.87
2018-02-22T05:45:17.030Z,67.97
2018-02-22T05:47:43.422Z,69.03
2018-02-22T05:50:10.513Z,74.90
2018-02-22T05:52:37.966Z,62.67
2018-02-22T05:55:04.507Z,68.50
2018-02-22T05:57:31.266Z,66.67
2018-02-22T05:59:57.999Z,66.03
2018-02-22T06:02:26.115Z,74.97
2018-02-22T06:04:53.647Z,66.83
2018-02-22T06:07:20.088Z,71.47
2018-02-22T06:09:48.228Z,65.50
2018-02-22T06:12:15.220Z,64.10
2018-02-22T06:14:41.959Z,58.40
2018-02-22T06:17:08.745Z,73.47
2018-02-22T06:19:36.323Z,56.43
2018-02-22T06:22:04.715Z,63.30
2018-02-22T06:24:32.643Z,71.17
2018-02-22T06:26:59.955Z,65.00
2018-02-22T06:29:26.952Z,72.33
2018-02-22T06:31:54.406Z,64.93
2018-02-22T06:34:21.618Z,73.27
2018-02-22T06:36:47.979Z,67.23
2018-02-22T06:39:15.327Z,63.73
2018-02-22T06:41:41.977Z,72.43
2018-02-22T06:44:08.423Z,68.93
2018-02-22T06:46:35.575Z,67.97
2018-02-22T06:49:03.696Z,61.77
2018-02-22T06:51:30.089Z,62.87
2018-02-22T06:53:57.776Z,63.77
2018-02-22T06:56:24.578Z,62.77
2018-02-22T06:58:52.608Z,61.73
2018-02-22T07:01:19.081Z,74.90
2018-02-22T07:03:45.832Z,60.77
2018-02-22T07:06:12.200Z,75.57
2018-02-22T07:08:40.307Z,68.90
2018-02-22T07:11:06.789Z,63.73
2018-02-22T07:13:34.117Z,61.67
2018-02-22T07:16:00.542Z,68.50
2018-02-22T07:18:27.386Z,62.10
2018-02-22T07:20:54.965Z,59.00
2018-02-22T07:23:21.530Z,54.87
2018-02-22T07:25:48.991Z,56.40
2018-02-22T07:28:15.377Z,52.63
2018-02-22T07:30:41.850Z,59.97
2018-02-22T07:33:08.385Z,75.53
2018-02-22T07:35:35.489Z,65.60
2018-02-22T07:38:02.321Z,64.77
2018-02-22T07:40:28.951Z,74.50
2018-02-22T07:42:57.146Z,63.07
2018-02-22T07:45:23.516Z,62.43
2018-02-22T07:47:50.820Z,59.73
2018-02-22T07:50:18.747Z,59.93
2018-02-22T07:52:45.362Z,62.90
2018-02-22T07:55:12.480Z,64.10
2018-02-22T07:57:46.673Z,60.70
2018-02-22T08:00:15.491Z,65.37
2018-02-22T08:02:44.041Z,57.03
2018-02-22T08:05:12.471Z,70.13
2018-02-22T08:07:40.534Z,63.97
2018-02-22T08:10:06.975Z,67.70
2018-02-22T08:12:35.113Z,65.97
2018-02-22T08:15:01.836Z,71.93
2018-02-22T08:17:28.397Z,70.33
2018-02-22T08:19:55.016Z,57.60
2018-02-22T08:22:21.500Z,65.27
2018-02-22T08:24:48.324Z,57.27
2018-02-22T08:27:15.261Z,73.93
2018-02-22T08:29:43.386Z,64.80
2018-02-22T08:32:10.114Z,60.37
2018-02-22T08:34:36.956Z,66.83
2018-02-22T08:37:04.247Z,70.83
2018-02-22T08:39:33.178Z,68.70
2018-02-22T08:42:01.368Z,60.90
2018-02-22T08:44:28.957Z,70.97
2018-02-22T08:46:55.444Z,71.03
2018-02-22T08:49:23.585Z,70.40
2018-02-22T08:51:57.186Z,58.57
2018-02-22T08:54:23.923Z,65.87
2018-02-22T08:56:51.097Z,59.73
2018-02-22T08:59:19.002Z,73.67
2018-02-22T09:01:45.824Z,70.10
2018-02-22T09:04:12.538Z,57.00
2018-02-22T09:06:39.396Z,62.50
2018-02-22T09:09:06.157Z,54.83
2018-02-22T09:11:32.696Z,67.43
2018-02-22T09:14:00.970Z,60.53
2018-02-22T09:16:27.551Z,53.93
2018-02-22T09:18:56.054Z,50.10
2018-02-22T09:21:23.160Z,51.57
2018-02-22T09:23:49.947Z,55.93
2018-02-22T09:26:17.576Z,45.67
2018-02-22T09:28:44.347Z,46.47
2018-02-22T09:31:11.668Z,44.13
2018-02-22T09:33:39.836Z,49.67
2018-02-22T09:36:07.597Z,51.77
2018-02-22T09:38:34.481Z,49.60
2018-02-22T09:41:00.925Z,46.83
2018-02-22T09:43:27.693Z,44.20
2018-02-22T09:45:54.198Z,48.77
2018-02-22T09:48:20.632Z,46.00
2018-02-22T09:50:48.886Z,46.40
2018-02-22T09:53:15.422Z,44.93
2018-02-22T09:55:42.010Z,52.23
2018-02-22T09:58:09.901Z,45.33
2018-02-22T10:00:36.283Z,43.03
2018-02-22T10:03:02.726Z,48.57
2018-02-22T10:05:30.587Z,46.67
2018-02-22T10:07:57.285Z,49.43
2018-02-22T10:10:23.714Z,51.30
2018-02-22T10:12:50.542Z,54.47
2018-02-22T10:15:16.939Z,55.30
2018-02-22T10:17:43.517Z,56.67
2018-02-22T10:20:09.939Z,52.53
2018-02-22T10:22:36.393Z,60.43
2018-02-22T10:25:03.953Z,55.70
2018-02-22T10:27:30.771Z,46.97
2018-02-22T10:29:57.196Z,40.53
2018-02-22T10:32:25.141Z,25.10
2018-02-22T10:34:51.492Z,21.93
2018-02-22T10:37:17.930Z,19.50
2018-02-22T10:39:46.181Z,17.13
2018-02-22T10:42:12.546Z,21.10
2018-02-22T10:44:40.641Z,13.90
2018-02-22T10:47:08.926Z,19.87
2018-02-22T10:49:35.334Z,22.13
2018-02-22T10:52:02.477Z,19.13
2018-02-22T10:54:29.219Z,21.57
2018-02-22T10:56:57.203Z,17.03
2018-02-22T10:59:25.360Z,13.90
2018-02-22T11:01:58.326Z,16.00
2018-02-22T11:04:25.499Z,13.83
2018-02-22T11:06:51.913Z,14.33
2018-02-22T11:09:18.330Z,15.60
2018-02-22T11:11:46.560Z,13.10
2018-02-22T11:14:14.574Z,13.43
2018-02-22T11:16:42.699Z,15.27
2018-02-22T11:19:10.311Z,13.67
2018-02-22T11:21:36.810Z,13.00
2018-02-22T11:24:03.234Z,14.20
2018-02-22T11:26:29.968Z,13.13
2018-02-22T11:28:57.153Z,11.93
2018-02-22T11:31:25.269Z,15.17
2018-02-22T11:33:51.700Z,11.30
2018-02-22T11:36:19.809Z,13.50
2018-02-22T11:38:46.188Z,12.10
2018-02-22T11:41:12.723Z,13.20
2018-02-22T11:43:39.131Z,11.93
2018-02-22T11:46:05.459Z,13.20
2018-02-22T11:48:32.692Z,16.73
2018-02-22T11:51:00.775Z,11.60
2018-02-22T11:53:27.149Z,13.40
2018-02-22T11:55:55.365Z,13.43
2018-02-22T11:58:21.741Z,11.20
2018-02-22T12:00:49.819Z,14.73
2018-02-22T12:03:16.333Z,11.00
2018-02-22T12:05:43.506Z,9.70
2018-02-22T12:08:10.681Z,8.50
2018-02-22T12:10:37.845Z,9.03
2018-02-22T12:13:04.198Z,10.63
2018-02-22T12:15:30.541Z,8.57
2018-02-22T12:17:57.316Z,8.30
2018-02-22T12:20:24.073Z,10.43
2018-02-22T12:22:50.497Z,10.43
2018-02-22T12:25:18.576Z,9.40
2018-02-22T12:27:46.072Z,9.60
2018-02-22T12:30:12.551Z,10.73
2018-02-22T12:32:40.522Z,8.17
2018-02-22T12:35:07.012Z,10.27
2018-02-22T12:37:33.740Z,6.43
2018-02-22T12:40:00.996Z,6.30
2018-02-22T12:42:27.812Z,7.37
2018-02-22T12:44:55.942Z,6.67
2018-02-22T12:47:22.312Z,5.33
2018-02-22T12:49:48.688Z,3.30
2018-02-22T12:52:16.595Z,4.50
2018-02-22T12:54:44.477Z,4.30
2018-02-22T12:57:12.547Z,3.73
2018-02-22T12:59:39.828Z,4.50
2018-02-22T13:02:08.335Z,3.10
2018-02-22T13:04:38.467Z,3.60
2018-02-22T13:07:11.034Z,3.33
2018-02-22T13:09:37.471Z,4.87
2018-02-22T13:12:05.545Z,11.40
2018-02-22T13:14:33.979Z,3.00
2018-02-22T13:17:00.441Z,2.23
2018-02-22T13:19:26.837Z,2.80
2018-02-22T13:21:53.954Z,2.40
2018-02-22T13:24:20.438Z,2.50
2018-02-22T13:26:47.163Z,3.53
2018-02-22T13:29:14.532Z,4.87
2018-02-22T13:31:41.309Z,2.50
2018-02-22T13:34:19.829Z,3.67
2018-02-22T13:36:48.262Z,6.40
2018-02-22T13:39:17.639Z,3.93
2018-02-22T13:41:45.244Z,7.67
2018-02-22T13:44:26.363Z,10.40
2018-02-22T13:46:53.219Z,3.00
2018-02-22T13:49:35.487Z,5.07
2018-02-22T13:52:03.739Z,3.40
2018-02-22T13:54:32.786Z,7.80
2018-02-22T13:57:07.052Z,6.63
2018-02-22T13:59:33.422Z,4.10
2018-02-22T14:02:21.496Z,14.73
2018-02-22T14:04:48.562Z,3.10
2018-02-22T14:07:15.846Z,7.60
2018-02-22T14:09:43.116Z,6.73
2018-02-22T14:12:10.360Z,4.73
2018-02-22T14:14:36.836Z,26.90
2018-02-22T14:17:04.109Z,4.57
2018-02-22T14:19:30.955Z,6.37
2018-02-22T14:21:58.637Z,5.53
2018-02-22T14:24:26.207Z,14.50
2018-02-22T14:26:52.986Z,5.20
2018-02-22T14:29:19.362Z,3.53
2018-02-22T14:31:47.432Z,5.07
2018-02-22T14:34:15.063Z,7.10
2018-02-22T14:36:41.456Z,4.30
2018-02-22T14:39:08.097Z,4.50
2018-02-22T14:41:36.217Z,7.73
2018-02-22T14:44:03.392Z,6.57
2018-02-22T14:49:18.404Z,5.60
2018-02-22T14:51:46.642Z,5.93
2018-02-22T14:54:14.908Z,6.10
2018-02-22T14:56:41.534Z,10.37
2018-02-22T14:59:09.616Z,6.20
2018-02-22T15:01:36.423Z,5.20
2018-02-22T15:04:04.506Z,4.13
2018-02-22T15:06:32.106Z,6.33
2018-02-22T15:09:00.127Z,7.50
2018-02-22T15:11:28.198Z,5.50
2018-02-22T15:13:55.356Z,3.10
2018-02-22T15:16:21.922Z,5.20
2018-02-22T15:18:49.132Z,4.33
2018-02-22T15:21:15.605Z,6.13
2018-02-22T15:23:43.664Z,7.17
2018-02-22T15:26:10.199Z,5.80
2018-02-22T15:28:36.812Z,6.67
2018-02-22T15:31:04.602Z,10.13
2018-02-22T15:33:30.992Z,5.27
2018-02-22T15:35:58.106Z,5.80
2018-02-22T15:38:25.955Z,5.23
2018-02-22T15:40:52.418Z,9.00
2018-02-22T15:43:25.144Z,11.33
2018-02-22T15:45:51.668Z,5.10
2018-02-22T15:48:18.805Z,5.80
2018-02-22T15:50:45.307Z,5.13
2018-02-22T15:53:13.394Z,4.10
2018-02-22T15:55:41.416Z,4.60
2018-02-22T15:58:08.578Z,6.37
2018-02-22T16:00:35.682Z,4.63
2018-02-22T16:03:02.070Z,5.10
2018-02-22T16:05:29.392Z,4.13
2018-02-22T16:07:56.924Z,10.40
2018-02-22T16:10:23.357Z,4.33
2018-02-22T16:12:50.513Z,5.80
2018-02-22T16:15:16.965Z,4.70
2018-02-22T16:17:44.104Z,4.30
2018-02-22T16:20:10.717Z,5.27
2018-02-22T16:22:37.608Z,3.90
2018-02-22T16:25:04.852Z,5.70
2018-02-22T16:27:32.217Z,4.27
2018-02-22T16:29:59.748Z,5.30
2018-02-22T16:32:26.246Z,5.73
2018-02-22T16:34:53.486Z,6.13
2018-02-22T16:37:22.349Z,4.00
2018-02-22T16:39:48.978Z,4.90
2018-02-22T16:42:15.643Z,4.00
2018-02-22T16:44:43.169Z,4.70
2018-02-22T16:47:09.609Z,3.90
2018-02-22T16:49:37.532Z,4.00
2018-02-22T16:52:06.038Z,4.83
2018-02-22T16:54:33.204Z,4.77
2018-02-22T16:57:00.109Z,5.30
2018-02-22T16:59:26.552Z,7.40
2018-02-22T17:01:53.702Z,5.33
2018-02-22T17:04:22.521Z,6.00
2018-02-22T17:06:49.330Z,5.53
2018-02-22T17:09:16.473Z,3.97
2018-02-22T17:11:43.282Z,4.00
2018-02-22T17:14:10.585Z,4.10
2018-02-22T17:16:37.339Z,4.80
2018-02-22T17:19:03.745Z,8.43
2018-02-22T17:21:30.211Z,5.47
2018-02-22T17:23:57.823Z,11.10
2018-02-22T17:26:31.213Z,6.90
2018-02-22T17:29:03.528Z,7.43
2018-02-22T17:31:37.376Z,6.30
2018-02-22T17:34:07.172Z,7.23
2018-02-22T17:39:42.444Z,6.13
2018-02-22T17:42:09.576Z,5.00
2018-02-22T17:44:37.652Z,6.73
2018-02-22T17:47:04.455Z,13.87
2018-02-22T17:49:31.263Z,4.53
2018-02-22T17:51:58.440Z,6.20
2018-02-22T17:54:24.805Z,6.07
2018-02-22T17:56:51.243Z,10.70
2018-02-22T17:59:19.464Z,6.43
2018-02-22T18:01:46.041Z,7.87
2018-02-22T18:04:13.624Z,5.37
2018-02-22T18:06:45.548Z,7.37
2018-02-22T18:09:12.261Z,8.97
2018-02-22T18:11:41.553Z,8.33
2018-02-22T18:14:08.304Z,5.53
2018-02-22T18:16:36.985Z,8.37
2018-02-22T18:19:04.638Z,9.43
2018-02-22T18:21:31.606Z,8.20
2018-02-22T18:23:58.190Z,9.77
2018-02-22T18:26:27.288Z,9.40
2018-02-22T18:28:54.485Z,10.23
2018-02-22T18:31:21.652Z,7.70
2018-02-22T18:33:48.428Z,10.80
2018-02-22T18:36:17.559Z,10.80
2018-02-22T18:38:51.095Z,11.17
2018-02-22T18:41:17.858Z,11.17
2018-02-22T18:43:46.081Z,13.27
2018-02-22T18:46:12.862Z,9.87
2018-02-22T18:48:39.351Z,13.83
2018-02-22T18:51:05.784Z,21.07
2018-02-22T18:53:33.348Z,11.87
2018-02-22T18:58:41.641Z,11.43
2018-02-22T19:01:09.725Z,18.93
2018-02-22T19:03:37.591Z,13.53
2018-02-22T19:06:04.147Z,13.00
2018-02-22T19:08:31.303Z,13.23
2018-02-22T19:10:58.069Z,14.57
2018-02-22T19:13:24.572Z,16.10
2018-02-22T19:15:51.340Z,15.13
2018-02-22T19:18:17.709Z,21.30
2018-02-22T19:20:44.472Z,19.53
2018-02-22T19:23:12.654Z,17.60
2018-02-22T19:25:40.649Z,16.27
2018-02-22T19:28:07.916Z,21.30
2018-02-22T19:30:35.098Z,16.23
2018-02-22T19:33:02.224Z,22.50
2018-02-22T19:35:28.692Z,24.70
2018-02-22T19:37:55.393Z,25.90
2018-02-22T19:40:22.131Z,26.47
2018-02-22T19:42:50.461Z,29.33
2018-02-22T19:45:16.972Z,33.93
2018-02-22T19:47:43.598Z,30.80
2018-02-22T19:50:10.135Z,30.57
2018-02-22T19:52:36.568Z,34.77
2018-02-22T19:55:03.715Z,37.80
2018-02-22T19:57:30.318Z,46.53
2018-02-22T19:59:57.329Z,41.57
2018-02-22T20:02:26.598Z,45.13
2018-02-22T20:04:53.205Z,41.70
2018-02-22T20:07:20.418Z,45.67
2018-02-22T20:09:50.712Z,38.70
2018-02-22T20:12:17.339Z,39.43
2018-02-22T20:14:43.837Z,37.47
2018-02-22T20:17:11.028Z,38.90
2018-02-22T20:19:37.604Z,43.33
2018-02-22T20:22:05.181Z,37.97
2018-02-22T20:24:33.603Z,38.80
2018-02-22T20:27:00.173Z,49.93
2018-02-22T20:29:27.593Z,48.10
2018-02-22T20:31:55.122Z,38.30
2018-02-22T20:34:23.197Z,39.67
2018-02-22T20:39:33.963Z,34.83
2018-02-22T20:42:01.706Z,35.37
2018-02-22T20:44:30.423Z,36.10
2018-02-22T20:46:57.455Z,38.43
2018-02-22T20:49:26.432Z,35.60
2018-02-22T20:51:53.111Z,38.00
2018-02-22T20:54:21.867Z,36.90
2018-02-22T20:56:49.677Z,30.87
2018-02-22T20:59:20.883Z,28.67
2018-02-22T21:01:49.188Z,34.93
2018-02-22T21:04:15.572Z,27.97
2018-02-22T21:06:42.890Z,40.67
2018-02-22T21:09:09.408Z,29.80
2018-02-22T21:11:36.490Z,30.73
2018-02-22T21:14:02.876Z,32.40
2018-02-22T21:16:29.357Z,36.37
2018-02-22T21:18:55.751Z,34.93
2018-02-22T21:21:22.693Z,31.57
2018-02-22T21:23:49.123Z,23.83
2018-02-22T21:26:15.607Z,30.40
2018-02-22T21:28:43.136Z,27.30
2018-02-22T21:31:09.807Z,24.17
2018-02-22T21:33:36.382Z,21.17
2018-02-22T21:36:03.248Z,26.93
2018-02-22T21:38:29.745Z,23.20
2018-02-22T21:40:56.605Z,22.50
2018-02-22T21:43:23.192Z,21.23
2018-02-22T21:45:50.511Z,21.57
2018-02-22T21:48:18.849Z,22.40
2018-02-22T21:50:45.210Z,20.77
2018-02-22T21:53:12.086Z,21.57
2018-02-22T21:55:38.496Z,18.07
2018-02-22T21:58:04.874Z,16.57
2018-02-22T22:00:31.330Z,13.87
2018-02-22T22:02:58.169Z,22.27
2018-02-22T22:05:25.698Z,18.20
2018-02-22T22:07:53.769Z,14.57
2018-02-22T22:10:20.953Z,12.30
2018-02-22T22:12:48.143Z,17.60
2018-02-22T22:15:14.504Z,14.10
2018-02-22T22:17:41.716Z,12.47
2018-02-22T22:20:08.865Z,13.80
2018-02-22T22:22:35.306Z,17.17
2018-02-22T22:25:02.072Z,13.70
2018-02-22T22:27:28.526Z,15.50
2018-02-22T22:29:55.694Z,13.03
2018-02-22T22:32:23.633Z,15.33
2018-02-22T22:34:50.449Z,15.10
2018-02-22T22:37:17.356Z,15.60
2018-02-22T22:39:44.492Z,14.10
2018-02-22T22:42:10.933Z,18.03
2018-02-22T22:44:37.445Z,12.37
2018-02-22T22:47:04.734Z,12.20
2018-02-22T22:49:31.565Z,17.53
2018-02-22T22:51:58.203Z,13.30
2018-02-22T22:54:25.296Z,12.13
2018-02-22T22:56:51.636Z,16.93
2018-02-22T22:59:18.821Z,12.00
2018-02-22T23:01:46.342Z,15.53
2018-02-22T23:04:12.714Z,17.27
2018-02-22T23:06:40.379Z,13.60
2018-02-22T23:09:06.721Z,14.97
2018-02-22T23:11:33.199Z,15.97
2018-02-22T23:13:59.952Z,18.43
2018-02-22T23:16:28.045Z,14.07
2018-02-22T23:18:54.434Z,13.03
2018-02-22T23:21:21.209Z,14.00
2018-02-22T23:23:47.603Z,18.10
2018-02-22T23:26:15.142Z,13.00
2018-02-22T23:28:42.136Z,14.80
2018-02-22T23:31:08.904Z,14.97
2018-02-22T23:33:36.549Z,17.73
2018-02-22T23:36:02.996Z,17.90
2018-02-22T23:38:31.127Z,13.20
2018-02-22T23:40:59.866Z,11.77
2018-02-22T23:43:27.020Z,15.33
2018-02-22T23:45:54.138Z,19.67
2018-02-22T23:48:21.261Z,15.40
2018-02-22T23:50:48.373Z,13.73
2018-02-22T23:53:14.767Z,11.50
2018-02-22T23:55:41.194Z,13.83
2018-02-22T23:58:07.952Z,14.23
